createdAt,value
2019-05-02T00:01:24.061Z,29.53
2019-05-02T00:03:54.351Z,33.67
2019-05-02T00:06:24.759Z,32.13
2019-05-02T00:08:55.055Z,29.37
2019-05-02T00:11:25.667Z,37.20
2019-05-02T00:13:55.925Z,32.50
2019-05-02T00:16:26.208Z,35.53
2019-05-02T00:18:56.453Z,34.63
2019-05-02T00:21:26.907Z,36.90
2019-05-02T00:23:59.212Z,39.60
2019-05-02T00:26:29.150Z,37.77
2019-05-02T00:28:59.712Z,33.57
2019-05-02T00:31:30.076Z,32.77
2019-05-02T00:34:00.369Z,35.57
2019-05-02T00:36:30.649Z,35.47
2019-05-02T00:39:00.941Z,32.27
2019-05-02T00:41:33.111Z,35.73
2019-05-02T00:44:05.986Z,37.50
2019-05-02T00:46:36.177Z,34.43
2019-05-02T00:49:06.876Z,34.53
2019-05-02T00:51:37.155Z,31.27
2019-05-02T00:54:07.442Z,41.00
2019-05-02T00:56:40.210Z,32.27
2019-05-02T00:59:09.721Z,36.03
2019-05-02T01:01:42.110Z,35.00
2019-05-02T01:04:23.358Z,35.53
2019-05-02T01:06:52.333Z,37.43
2019-05-02T01:09:22.582Z,34.90
2019-05-02T01:11:52.832Z,31.17
2019-05-02T01:14:27.138Z,30.90
2019-05-02T01:16:56.252Z,35.77
2019-05-02T01:19:26.608Z,34.17
2019-05-02T01:21:56.861Z,36.17
2019-05-02T01:24:27.147Z,27.63
2019-05-02T01:27:04.653Z,31.10
2019-05-02T01:29:35.277Z,29.33
2019-05-02T01:32:25.237Z,30.37
2019-05-02T01:34:57.365Z,32.30
2019-05-02T01:37:29.300Z,26.93
2019-05-02T01:39:59.589Z,31.83
2019-05-02T01:42:39.677Z,29.57
2019-05-02T01:45:01.781Z,25.73
2019-05-02T01:47:34.114Z,25.33
2019-05-02T01:50:04.292Z,25.37
2019-05-02T01:52:34.631Z,23.63
2019-05-02T01:55:07.095Z,22.00
2019-05-02T01:57:39.879Z,25.23
2019-05-02T02:00:11.554Z,23.73
2019-05-02T02:02:41.836Z,21.70
2019-05-02T02:05:12.085Z,24.73
2019-05-02T02:07:42.382Z,23.47
2019-05-02T02:10:14.968Z,22.93
2019-05-02T02:13:02.914Z,22.73
2019-05-02T02:15:16.604Z,19.83
2019-05-02T02:17:51.261Z,22.57
2019-05-02T02:20:26.414Z,18.73
2019-05-02T02:22:58.340Z,17.83
2019-05-02T02:25:36.205Z,18.63
2019-05-02T02:28:06.447Z,20.93
2019-05-02T02:30:36.731Z,18.93
2019-05-02T02:33:08.219Z,19.33
2019-05-02T02:35:49.732Z,20.43
2019-05-02T02:38:10.997Z,19.30
2019-05-02T02:40:41.283Z,19.97
2019-05-02T02:43:31.620Z,18.07
2019-05-02T02:45:57.591Z,15.40
2019-05-02T02:48:26.393Z,18.97
2019-05-02T02:50:56.681Z,19.80
2019-05-02T02:53:32.590Z,16.80
2019-05-02T02:56:05.638Z,16.53
2019-05-02T02:58:44.632Z,15.93
2019-05-02T03:01:07.899Z,14.43
2019-05-02T03:03:38.130Z,15.23
2019-05-02T03:06:08.683Z,15.67
2019-05-02T03:08:45.950Z,16.03
2019-05-02T03:11:22.802Z,15.50
2019-05-02T03:14:05.738Z,14.13
2019-05-02T03:16:31.740Z,15.63
2019-05-02T03:19:02.013Z,15.53
2019-05-02T03:21:32.294Z,14.93
2019-05-02T03:24:05.573Z,14.90
2019-05-02T03:26:34.588Z,18.40
2019-05-02T03:29:04.832Z,18.77
2019-05-02T03:31:35.125Z,14.43
2019-05-02T03:34:05.428Z,17.67
2019-05-02T03:36:37.232Z,18.67
2019-05-02T03:39:15.326Z,14.53
2019-05-02T03:41:39.722Z,15.17
2019-05-02T03:44:11.953Z,14.43
2019-05-02T03:46:41.900Z,13.10
2019-05-02T03:49:12.175Z,15.63
2019-05-02T03:51:42.453Z,14.17
2019-05-02T03:54:12.727Z,14.30
2019-05-02T03:56:44.780Z,21.27
2019-05-02T03:59:15.538Z,14.60
2019-05-02T04:01:46.254Z,16.70
2019-05-02T04:04:20.808Z,15.00
2019-05-02T04:06:54.804Z,15.60
2019-05-02T04:09:38.925Z,14.57
2019-05-02T04:12:11.405Z,13.87
2019-05-02T04:14:39.693Z,12.03
2019-05-02T04:17:10.774Z,11.57
2019-05-02T04:19:41.288Z,12.43
2019-05-02T04:22:12.480Z,13.43
2019-05-02T04:24:48.043Z,17.70
2019-05-02T04:27:14.902Z,13.80
2019-05-02T04:29:45.181Z,15.07
2019-05-02T04:32:15.773Z,16.67
2019-05-02T04:34:49.023Z,13.20
2019-05-02T04:37:17.967Z,17.10
2019-05-02T04:39:49.069Z,14.30
2019-05-02T04:42:23.216Z,13.77
2019-05-02T04:45:11.813Z,15.67
2019-05-02T04:47:24.034Z,13.87
2019-05-02T04:49:54.311Z,16.57
2019-05-02T04:52:24.576Z,11.93
2019-05-02T04:55:08.333Z,10.73
2019-05-02T04:57:35.944Z,12.70
2019-05-02T05:00:06.343Z,15.37
2019-05-02T05:02:36.771Z,13.20
2019-05-02T05:05:04.782Z,10.43
2019-05-02T05:07:43.533Z,13.10
2019-05-02T05:10:08.506Z,12.90
2019-05-02T05:12:41.753Z,10.70
2019-05-02T05:15:15.191Z,13.43
2019-05-02T05:17:42.670Z,13.00
2019-05-02T05:20:15.627Z,16.60
2019-05-02T05:22:45.937Z,13.27
2019-05-02T05:25:27.818Z,10.63
2019-05-02T05:28:05.289Z,11.17
2019-05-02T05:30:29.975Z,11.67
2019-05-02T05:33:00.245Z,13.00
2019-05-02T05:35:30.508Z,15.27
2019-05-02T05:38:00.740Z,11.07
2019-05-02T05:40:32.274Z,18.20
2019-05-02T05:43:11.181Z,9.80
2019-05-02T05:45:47.404Z,10.67
2019-05-02T05:48:08.311Z,11.27
2019-05-02T05:50:41.364Z,11.17
2019-05-02T05:53:12.446Z,11.97
2019-05-02T05:55:42.834Z,11.90
2019-05-02T05:58:15.648Z,9.63
2019-05-02T06:00:45.880Z,9.50
2019-05-02T06:03:17.935Z,13.60
2019-05-02T06:05:48.535Z,11.83
2019-05-02T06:08:19.942Z,8.83
2019-05-02T06:10:50.349Z,9.70
2019-05-02T06:13:20.586Z,13.70
2019-05-02T06:16:01.966Z,10.23
2019-05-02T06:18:23.803Z,13.70
2019-05-02T06:20:54.205Z,10.37
2019-05-02T06:23:24.473Z,10.37
2019-05-02T06:25:55.003Z,9.47
2019-05-02T06:28:25.270Z,9.37
2019-05-02T06:30:55.543Z,12.50
2019-05-02T06:33:30.120Z,10.30
2019-05-02T06:36:01.105Z,12.77
2019-05-02T06:38:29.682Z,10.93
2019-05-02T06:40:59.916Z,11.60
2019-05-02T06:43:30.635Z,11.47
2019-05-02T06:46:00.879Z,14.00
2019-05-02T06:48:31.120Z,10.73
2019-05-02T06:51:01.397Z,14.07
2019-05-02T06:53:31.627Z,11.07
2019-05-02T06:56:01.869Z,11.40
2019-05-02T06:58:32.118Z,15.50
2019-05-02T07:01:03.173Z,13.93
2019-05-02T07:03:33.446Z,11.10
2019-05-02T07:06:04.551Z,15.07
2019-05-02T07:08:35.735Z,13.47
2019-05-02T07:11:06.383Z,12.70
2019-05-02T07:13:42.133Z,13.47
2019-05-02T07:16:30.341Z,13.73
2019-05-02T07:18:49.816Z,14.30
2019-05-02T07:21:23.375Z,12.43
2019-05-02T07:23:53.590Z,14.80
2019-05-02T07:26:23.948Z,14.57
2019-05-02T07:28:54.426Z,13.93
2019-05-02T07:31:24.679Z,14.37
2019-05-02T07:33:54.954Z,14.47
2019-05-02T07:36:25.233Z,15.80
2019-05-02T07:38:57.484Z,16.90
2019-05-02T07:41:29.050Z,19.63
2019-05-02T07:43:59.648Z,14.03
2019-05-02T07:46:30.148Z,16.07
2019-05-02T07:49:00.651Z,18.83
2019-05-02T07:51:30.920Z,15.17
2019-05-02T07:54:01.180Z,16.93
2019-05-02T07:56:32.403Z,15.40
2019-05-02T07:59:02.687Z,18.80
2019-05-02T08:01:32.937Z,17.63
2019-05-02T08:04:04.791Z,16.47
2019-05-02T08:06:39.822Z,17.57
2019-05-02T08:09:09.262Z,15.70
2019-05-02T08:11:39.695Z,18.70
2019-05-02T08:14:09.953Z,17.50
2019-05-02T08:16:40.208Z,19.63
2019-05-02T08:19:10.497Z,17.87
2019-05-02T08:21:46.816Z,16.27
2019-05-02T08:24:17.079Z,21.93
2019-05-02T08:26:59.535Z,18.73
2019-05-02T08:29:30.781Z,19.93
2019-05-02T08:32:01.446Z,16.13
2019-05-02T08:34:34.740Z,18.80
2019-05-02T08:37:05.480Z,17.90
2019-05-02T08:39:35.949Z,23.70
2019-05-02T08:42:06.257Z,18.03
2019-05-02T08:44:49.590Z,21.60
2019-05-02T08:47:18.767Z,22.17
2019-05-02T08:49:42.492Z,20.73
2019-05-02T08:52:12.636Z,19.73
2019-05-02T08:54:42.900Z,15.80
2019-05-02T08:57:13.182Z,20.23
2019-05-02T08:59:43.635Z,20.20
2019-05-02T09:02:13.906Z,18.47
2019-05-02T09:04:44.559Z,23.43
2019-05-02T09:07:14.870Z,22.83
2019-05-02T09:09:45.192Z,22.80
2019-05-02T09:12:15.503Z,20.80
2019-05-02T09:14:45.765Z,19.40
2019-05-02T09:17:16.789Z,20.27
2019-05-02T09:19:59.429Z,20.93
2019-05-02T09:22:19.509Z,19.53
2019-05-02T09:24:51.914Z,21.00
2019-05-02T09:27:22.521Z,23.63
2019-05-02T09:29:52.883Z,18.13
2019-05-02T09:32:26.223Z,22.07
2019-05-02T09:34:56.637Z,18.93
2019-05-02T09:37:27.380Z,21.57
2019-05-02T09:39:57.695Z,21.87
2019-05-02T09:42:27.928Z,23.37
2019-05-02T09:44:58.226Z,27.20
2019-05-02T09:47:33.253Z,25.07
2019-05-02T09:50:08.067Z,22.37
2019-05-02T09:52:39.595Z,20.57
2019-05-02T09:55:12.216Z,20.87
2019-05-02T09:57:42.847Z,22.47
2019-05-02T10:00:41.854Z,26.23
2019-05-02T10:03:12.235Z,24.40
2019-05-02T10:05:43.200Z,23.50
2019-05-02T10:08:14.084Z,23.73
2019-05-02T10:10:45.937Z,28.40
2019-05-02T10:13:16.599Z,23.67
2019-05-02T10:15:47.296Z,27.00
2019-05-02T10:18:19.726Z,24.33
2019-05-02T10:20:49.557Z,22.87
2019-05-02T10:23:20.874Z,23.57
2019-05-02T10:25:52.154Z,25.40
2019-05-02T10:28:23.739Z,22.33
2019-05-02T10:30:56.689Z,26.93
2019-05-02T10:33:27.955Z,25.17
2019-05-02T10:35:58.273Z,28.80
2019-05-02T10:38:28.559Z,25.20
2019-05-02T10:41:01.723Z,26.17
2019-05-02T10:43:32.786Z,22.43
2019-05-02T10:46:12.437Z,25.50
2019-05-02T10:49:03.036Z,24.07
2019-05-02T10:51:34.471Z,20.93
2019-05-02T10:54:05.986Z,24.83
2019-05-02T10:56:36.265Z,27.97
2019-05-02T10:59:06.548Z,23.60
2019-05-02T11:01:38.457Z,23.33
2019-05-02T11:04:13.187Z,26.67
2019-05-02T11:06:46.296Z,26.77
2019-05-02T11:09:16.849Z,22.50
2019-05-02T11:11:47.424Z,26.23
2019-05-02T11:14:19.322Z,27.60
2019-05-02T11:16:52.490Z,23.47
2019-05-02T11:19:24.726Z,25.90
2019-05-02T11:21:58.785Z,24.47
2019-05-02T11:24:26.906Z,24.13
2019-05-02T11:26:57.838Z,23.33
2019-05-02T11:29:28.260Z,22.63
2019-05-02T11:31:58.622Z,22.23
2019-05-02T11:34:28.869Z,23.93
2019-05-02T11:36:59.193Z,19.00
2019-05-02T11:39:37.699Z,23.97
2019-05-02T11:42:02.144Z,23.43
2019-05-02T11:44:32.762Z,22.00
2019-05-02T11:47:03.003Z,22.70
2019-05-02T11:49:33.289Z,22.80
2019-05-02T11:52:04.697Z,27.27
2019-05-02T11:54:39.124Z,19.13
2019-05-02T11:57:07.022Z,20.57
2019-05-02T11:59:37.247Z,22.87
2019-05-02T12:02:14.076Z,21.67
2019-05-02T12:04:41.768Z,23.07
2019-05-02T12:07:12.726Z,22.57
2019-05-02T12:09:45.681Z,22.23
2019-05-02T12:12:15.719Z,22.70
2019-05-02T12:14:46.076Z,21.57
2019-05-02T12:17:16.338Z,20.70
2019-05-02T12:19:46.597Z,23.93
2019-05-02T12:22:17.119Z,20.97
2019-05-02T12:24:47.544Z,22.57
2019-05-02T12:27:17.824Z,19.17
2019-05-02T12:29:50.257Z,24.93
2019-05-02T12:32:22.335Z,24.57
2019-05-02T12:34:52.679Z,22.73
2019-05-02T12:37:23.114Z,20.90
2019-05-02T12:39:53.686Z,22.10
2019-05-02T12:42:24.716Z,17.63
2019-05-02T12:44:55.212Z,23.13
2019-05-02T12:47:26.635Z,28.03
2019-05-02T12:49:57.941Z,26.80
2019-05-02T12:52:28.227Z,22.93
2019-05-02T12:54:58.506Z,25.70
2019-05-02T12:57:28.784Z,24.40
2019-05-02T12:59:59.095Z,25.47
2019-05-02T13:02:44.505Z,25.63
2019-05-02T13:05:14.795Z,22.47
2019-05-02T13:07:50.468Z,21.43
2019-05-02T13:10:19.261Z,21.23
2019-05-02T13:12:49.863Z,22.00
2019-05-02T13:15:21.944Z,21.70
2019-05-02T13:17:52.460Z,20.77
2019-05-02T13:20:24.912Z,21.10
2019-05-02T13:23:01.541Z,18.00
2019-05-02T13:25:36.763Z,20.73
2019-05-02T13:28:04.783Z,16.97
2019-05-02T13:30:42.848Z,19.17
2019-05-02T13:33:13.287Z,18.13
2019-05-02T13:35:45.186Z,18.10
2019-05-02T13:38:17.088Z,18.50
2019-05-02T13:40:47.352Z,19.63
2019-05-02T13:43:17.688Z,16.87
2019-05-02T13:45:49.694Z,16.90
2019-05-02T13:48:21.776Z,18.43
2019-05-02T13:50:52.195Z,16.77
2019-05-02T13:53:22.718Z,13.83
2019-05-02T13:55:54.675Z,16.40
2019-05-02T13:58:28.824Z,15.73
2019-05-02T14:00:56.949Z,17.23
2019-05-02T14:03:28.080Z,14.13
2019-05-02T14:05:58.367Z,16.70
2019-05-02T14:08:37.090Z,17.93
2019-05-02T14:11:07.316Z,18.57
2019-05-02T14:13:37.864Z,17.33
2019-05-02T14:16:08.112Z,17.83
2019-05-02T14:18:38.407Z,19.60
2019-05-02T14:21:08.662Z,17.80
2019-05-02T14:23:38.916Z,19.90
2019-05-02T14:26:09.206Z,18.57
2019-05-02T14:28:39.704Z,19.50
2019-05-02T14:31:11.893Z,22.17
2019-05-02T14:33:44.172Z,21.03
2019-05-02T14:36:14.443Z,21.67
2019-05-02T14:38:44.698Z,18.47
2019-05-02T14:41:16.594Z,21.23
2019-05-02T14:43:53.084Z,20.60
2019-05-02T14:46:28.792Z,22.90
2019-05-02T14:48:56.757Z,21.90
2019-05-02T14:51:27.959Z,23.50
2019-05-02T14:54:03.586Z,24.47
2019-05-02T14:56:32.983Z,23.33
2019-05-02T14:59:03.505Z,21.77
2019-05-02T15:01:34.388Z,26.60
2019-05-02T15:04:08.338Z,23.83
2019-05-02T15:06:38.374Z,26.03
2019-05-02T15:09:08.974Z,23.90
2019-05-02T15:11:57.268Z,23.03
2019-05-02T15:14:33.075Z,24.60
2019-05-02T15:17:03.922Z,24.37
2019-05-02T15:19:34.172Z,26.07
2019-05-02T15:22:04.482Z,25.43
2019-05-02T15:24:37.492Z,24.23
2019-05-02T15:27:11.787Z,24.00
2019-05-02T15:29:38.644Z,27.53
2019-05-02T15:32:25.925Z,23.57
2019-05-02T15:35:09.816Z,23.57
2019-05-02T15:37:41.712Z,29.00
2019-05-02T15:42:45.713Z,25.90
2019-05-02T15:45:15.985Z,26.93
2019-05-02T15:47:46.259Z,26.00
2019-05-02T15:50:21.945Z,34.70
2019-05-02T15:52:50.153Z,25.40
2019-05-02T15:55:21.979Z,27.17
2019-05-02T15:57:53.808Z,29.37
2019-05-02T16:00:37.476Z,27.63
2019-05-02T16:03:07.756Z,26.53
2019-05-02T16:05:41.225Z,25.23
2019-05-02T16:08:09.983Z,26.33
2019-05-02T16:10:42.701Z,26.30
2019-05-02T16:13:17.006Z,23.90
2019-05-02T16:15:45.381Z,26.20
2019-05-02T16:18:15.678Z,28.43
2019-05-02T16:20:49.275Z,25.50
2019-05-02T16:23:29.871Z,26.37
2019-05-02T16:25:52.370Z,23.87
2019-05-02T16:28:23.111Z,24.90
2019-05-02T16:30:54.993Z,27.60
2019-05-02T16:33:27.255Z,34.43
2019-05-02T16:35:57.209Z,39.00
2019-05-02T16:38:32.390Z,27.50
2019-05-02T16:41:02.319Z,25.67
2019-05-02T16:43:32.777Z,27.83
2019-05-02T16:46:06.628Z,56.60
2019-05-02T16:48:37.622Z,35.63
2019-05-02T16:51:29.447Z,45.70
2019-05-02T16:53:40.145Z,33.57
2019-05-02T16:56:11.589Z,29.10
2019-05-02T16:58:43.316Z,33.03
2019-05-02T17:01:19.675Z,29.60
2019-05-02T17:03:46.089Z,33.57
2019-05-02T17:06:16.973Z,31.23
2019-05-02T17:08:57.229Z,34.70
2019-05-02T17:11:32.345Z,33.07
2019-05-02T17:14:02.301Z,30.97
2019-05-02T17:16:32.775Z,29.83
2019-05-02T17:19:03.062Z,30.67
2019-05-02T17:21:52.347Z,30.53
2019-05-02T17:24:05.364Z,28.87
2019-05-02T17:26:35.662Z,28.13
2019-05-02T17:29:05.913Z,30.83
2019-05-02T17:31:36.217Z,30.93
2019-05-02T17:34:06.488Z,31.50
2019-05-02T17:36:36.766Z,30.13
2019-05-02T17:39:08.466Z,31.47
2019-05-02T17:41:42.355Z,29.60
2019-05-02T17:44:12.861Z,27.80
2019-05-02T17:46:42.955Z,26.93
2019-05-02T17:49:13.224Z,33.13
2019-05-02T17:52:05.808Z,31.27
2019-05-02T17:54:33.245Z,31.03
2019-05-02T17:57:03.754Z,31.10
2019-05-02T17:59:37.477Z,30.23
2019-05-02T18:02:06.735Z,25.47
2019-05-02T18:04:46.697Z,30.20
2019-05-02T18:07:14.576Z,26.07
2019-05-02T18:09:44.838Z,28.30
2019-05-02T18:12:16.325Z,30.20
2019-05-02T18:14:46.660Z,27.80
2019-05-02T18:17:16.935Z,27.77
2019-05-02T18:19:47.223Z,32.30
2019-05-02T18:22:23.392Z,31.80
2019-05-02T18:24:49.702Z,32.77
2019-05-02T18:27:22.110Z,29.73
2019-05-02T18:29:52.040Z,33.23
2019-05-02T18:32:25.998Z,32.73
2019-05-02T18:34:56.859Z,32.03
2019-05-02T18:37:26.264Z,33.43
2019-05-02T18:39:56.554Z,33.77
2019-05-02T18:42:26.954Z,34.63
2019-05-02T18:44:57.346Z,31.27
2019-05-02T18:47:27.652Z,34.23
2019-05-02T18:50:01.819Z,33.70
2019-05-02T18:52:38.420Z,30.37
2019-05-02T18:55:02.221Z,35.40
2019-05-02T18:57:32.509Z,33.37
2019-05-02T19:00:02.956Z,34.90
2019-05-02T19:02:35.600Z,31.10
2019-05-02T19:05:13.407Z,32.40
2019-05-02T19:07:38.664Z,36.37
2019-05-02T19:10:09.007Z,35.00
2019-05-02T19:12:39.289Z,35.33
2019-05-02T19:15:09.560Z,34.33
2019-05-02T19:17:40.517Z,35.53
2019-05-02T19:20:24.386Z,35.40
2019-05-02T19:22:56.950Z,33.63
2019-05-02T19:25:27.087Z,32.63
2019-05-02T19:28:02.875Z,31.77
2019-05-02T19:30:37.856Z,34.00
2019-05-02T19:33:08.177Z,32.87
2019-05-02T19:35:43.209Z,34.77
2019-05-02T19:38:11.862Z,35.60
2019-05-02T19:40:42.737Z,35.27
2019-05-02T19:43:14.807Z,32.33
2019-05-02T19:45:45.740Z,31.97
2019-05-02T19:48:17.096Z,33.33
2019-05-02T19:50:47.505Z,32.40
2019-05-02T19:53:19.516Z,35.53
2019-05-02T19:55:51.865Z,34.30
2019-05-02T19:58:21.908Z,32.43
2019-05-02T20:00:52.646Z,35.80
2019-05-02T20:03:25.969Z,30.73
2019-05-02T20:06:01.160Z,34.27
2019-05-02T20:08:27.169Z,30.43
2019-05-02T20:10:58.515Z,33.80
2019-05-02T20:13:30.635Z,28.27
2019-05-02T20:16:05.639Z,29.50
2019-05-02T20:18:42.529Z,29.40
2019-05-02T20:21:23.388Z,30.10
2019-05-02T20:23:46.239Z,29.60
2019-05-02T20:26:17.247Z,27.20
2019-05-02T20:28:47.522Z,29.00
2019-05-02T20:31:17.786Z,24.20
2019-05-02T20:33:48.040Z,20.50
2019-05-02T20:36:18.366Z,19.63
2019-05-02T20:38:48.631Z,17.07
2019-05-02T20:41:18.913Z,18.17
2019-05-02T20:43:49.205Z,16.17
2019-05-02T20:46:21.713Z,17.73
2019-05-02T20:48:52.621Z,13.50
2019-05-02T20:51:23.047Z,15.40
2019-05-02T20:53:53.900Z,15.43
2019-05-02T20:56:24.401Z,12.80
2019-05-02T20:58:54.693Z,16.70
2019-05-02T21:01:24.978Z,14.23
2019-05-02T21:03:55.237Z,14.80
2019-05-02T21:06:40.781Z,13.00
2019-05-02T21:09:16.481Z,13.63
2019-05-02T21:11:52.501Z,12.60
2019-05-02T21:14:22.831Z,14.90
2019-05-02T21:16:53.088Z,12.33
2019-05-02T21:19:23.380Z,16.70
2019-05-02T21:21:53.665Z,12.87
2019-05-02T21:24:23.908Z,12.53
2019-05-02T21:26:54.459Z,14.50
2019-05-02T21:29:24.740Z,14.47
2019-05-02T21:31:54.992Z,12.67
2019-05-02T21:34:25.245Z,13.27
2019-05-02T21:36:56.373Z,13.03
2019-05-02T21:39:26.655Z,13.20
2019-05-02T21:41:56.982Z,15.03
2019-05-02T21:44:27.254Z,12.57
2019-05-02T21:46:57.500Z,11.20
2019-05-02T21:49:44.048Z,12.93
2019-05-02T21:52:31.844Z,9.93
2019-05-02T21:55:14.164Z,11.30
2019-05-02T21:57:44.429Z,12.77
2019-05-02T22:00:22.160Z,9.33
2019-05-02T22:02:52.381Z,10.13
2019-05-02T22:05:22.660Z,9.77
2019-05-02T22:07:52.895Z,4.90
2019-05-02T22:10:23.132Z,4.43
2019-05-02T22:12:53.373Z,9.40
2019-05-02T22:15:23.609Z,5.73
2019-05-02T22:17:53.861Z,5.20
2019-05-02T22:20:24.138Z,5.33
2019-05-02T22:22:54.370Z,3.27
2019-05-02T22:25:24.620Z,4.70
2019-05-02T22:27:54.858Z,3.17
2019-05-02T22:30:25.139Z,3.60
2019-05-02T22:32:55.448Z,6.47
2019-05-02T22:35:25.674Z,6.47
2019-05-02T22:37:57.588Z,3.13
2019-05-02T22:40:27.916Z,3.50
2019-05-02T22:42:58.183Z,3.73
2019-05-02T22:45:28.414Z,6.40
2019-05-02T22:47:58.653Z,3.80
2019-05-02T22:50:28.950Z,3.13
2019-05-02T22:52:59.184Z,5.27
2019-05-02T22:55:29.455Z,4.53
2019-05-02T22:57:59.687Z,3.70
2019-05-02T23:00:31.899Z,6.20
2019-05-02T23:03:01.952Z,2.90
2019-05-02T23:05:34.358Z,4.67
2019-05-02T23:08:04.246Z,4.37
2019-05-02T23:10:34.507Z,5.10
2019-05-02T23:13:04.739Z,5.33
2019-05-02T23:15:35.046Z,8.27
2019-05-02T23:18:05.489Z,5.97
2019-05-02T23:20:35.824Z,5.90
2019-05-02T23:23:06.057Z,4.67
2019-05-02T23:25:55.952Z,3.23
2019-05-02T23:28:27.819Z,8.40
2019-05-02T23:30:58.060Z,7.27
2019-05-02T23:33:29.967Z,5.60
2019-05-02T23:36:01.957Z,5.57
2019-05-02T23:38:32.439Z,7.37
2019-05-02T23:41:02.718Z,6.10
2019-05-02T23:43:32.982Z,5.20
2019-05-02T23:46:03.216Z,7.87
2019-05-02T23:48:33.456Z,6.07
2019-05-02T23:51:03.733Z,5.00
2019-05-02T23:53:33.961Z,5.53
2019-05-02T23:56:04.236Z,5.60
2019-05-02T23:58:34.491Z,4.77
